Time;durP1;ratioP1;P1;durP2;ratioP2;P2;SDS_P1;SDS_P2;PMS_P1;PMS_P2;Temp;Humidity;BMP_temperature;BMP_pressure;BME280_temperature;BME280_humidity;BME280_pressure;Samples;Min_cycle;Max_cycle;Signal;HPM_P1;HPM_P2
2022/04/09 00:00:27;;;;;;;;;;;8.40;99.90;;;;;;5084211;28;19911;-79
2022/04/09 00:02:53;;;;;;;;;;;8.40;99.90;;;;;;5093152;28;19903;-80
2022/04/09 00:05:19;;;;;;;;;;;8.40;99.90;;;;;;5093092;28;19911;-79
2022/04/09 00:07:44;;;;;;;;;;;8.40;99.90;;;;;;5093206;28;19907;-79
2022/04/09 00:10:11;;;;;;;;;;;8.30;99.90;;;;;;5094375;28;20034;-79
2022/04/09 00:12:37;;;;;;;;;;;8.30;99.90;;;;;;5098209;28;19908;-80
2022/04/09 00:15:03;;;;;;;;;;;8.30;99.90;;;;;;5092861;28;20455;-80
2022/04/09 00:17:35;;;;;;;;;;;8.40;99.90;;;;;;5085185;28;19908;-78
2022/04/09 00:20:00;;;;;;;;;;;8.30;99.90;;;;;;5072287;28;19909;-80
2022/04/09 00:22:26;;;;;;;;;;;8.20;99.90;;;;;;5072766;28;19911;-79
2022/04/09 00:24:52;;;;;;;;;;;8.20;99.90;;;;;;5072407;28;20364;-79
2022/04/09 00:27:18;;;;;;;;;;;8.00;99.90;;;;;;5072640;28;19911;-79
2022/04/09 00:29:43;;;;;;;;;;;8.00;99.90;;;;;;5085793;28;19912;-79
2022/04/09 00:32:09;;;;;;;;;;;7.80;99.90;;;;;;5093439;28;19904;-78
2022/04/09 00:34:34;;;;;;;;;;;7.80;99.90;;;;;;5071930;28;19924;-78
2022/04/09 00:37:00;;;;;;;;;;;7.70;99.90;;;;;;5073248;28;19931;-79
2022/04/09 00:39:26;;;;;;;;;;;7.70;99.90;;;;;;5073068;28;20034;-79
2022/04/09 00:41:51;;;;;;;;;;;7.60;99.90;;;;;;5102740;28;20265;-78
2022/04/09 00:44:17;;;;;;;;;;;7.70;99.90;;;;;;5113427;28;20439;-78
2022/04/09 00:46:44;;;;;;;;;;;7.70;99.90;;;;;;5114324;28;20360;-78
2022/04/09 00:49:10;;;;;;;;;;;7.60;99.90;;;;;;5113968;28;20288;-79
2022/04/09 00:51:37;;;;;;;;;;;7.50;99.90;;;;;;5092783;28;19912;-78
2022/04/09 00:54:05;;;;;;;;;;;7.50;99.90;;;;;;5092996;28;19904;-78
2022/04/09 00:56:31;;;;;;;;;;;7.40;99.90;;;;;;5091392;28;19908;-79
2022/04/09 00:59:00;;;;;;;;;;;7.40;99.90;;;;;;5091435;28;19908;-79
2022/04/09 01:01:27;;;;;;;;;;;7.40;99.90;;;;;;5092547;28;19911;-78
2022/04/09 01:03:54;;;;;;;;;;;7.40;99.90;;;;;;5092365;28;19904;-78
2022/04/09 01:06:19;;;;;;;;;;;7.40;99.90;;;;;;5083544;28;20025;-78
2022/04/09 01:08:45;;;;;;;;;;;7.40;99.90;;;;;;5072122;28;19982;-79
2022/04/09 01:11:11;;;;;;;;;;;7.40;99.90;;;;;;5072190;28;19954;-78
2022/04/09 01:13:37;;;;;;;;;;;7.40;99.90;;;;;;5071675;28;19921;-78
2022/04/09 01:16:03;;;;;;;;;;;7.40;99.90;;;;;;5071908;28;20368;-79
2022/04/09 01:18:33;;;;;;;;;;;7.30;99.90;;;;;;5071799;28;19904;-80
2022/04/09 01:21:01;;;;;;;;;;;7.30;99.90;;;;;;5071985;28;19930;-79
2022/04/09 01:23:27;;;;;;;;;;;7.30;99.90;;;;;;5072831;28;19912;-77
2022/04/09 01:25:53;;;;;;;;;;;7.30;99.90;;;;;;5073022;28;19912;-77
2022/04/09 01:28:18;;;;;;;;;;;7.30;99.90;;;;;;5073378;28;20281;-79
2022/04/09 01:30:44;;;;;;;;;;;7.30;99.90;;;;;;5092768;28;19957;-78
2022/04/09 01:33:19;;;;;;;;;;;7.30;99.90;;;;;;5095874;28;19915;-78
2022/04/09 01:35:45;;;;;;;;;;;7.40;99.90;;;;;;5095697;28;19907;-79
2022/04/09 01:38:11;;;;;;;;;;;7.50;99.90;;;;;;5094894;28;20003;-80
2022/04/09 01:40:37;;;;;;;;;;;7.50;99.90;;;;;;5093701;28;19912;-79
2022/04/09 01:43:02;;;;;;;;;;;7.50;99.90;;;;;;5095635;28;19926;-79
2022/04/09 01:45:28;;;;;;;;;;;7.50;99.90;;;;;;5095299;28;20307;-79
2022/04/09 01:47:54;;;;;;;;;;;7.50;99.90;;;;;;5095358;28;19991;-79
2022/04/09 01:50:21;;;;;;;;;;;7.50;99.90;;;;;;5095162;28;19935;-79
2022/04/09 01:52:47;;;;;;;;;;;7.40;99.90;;;;;;5095339;28;19904;-80
2022/04/09 01:55:13;;;;;;;;;;;7.30;99.90;;;;;;5095242;28;19954;-81
2022/04/09 01:57:39;;;;;;;;;;;7.20;99.90;;;;;;5082920;28;19948;-79
2022/04/09 02:00:05;;;;;;;;;;;7.20;99.90;;;;;;5074889;28;19904;-80
2022/04/09 02:02:32;;;;;;;;;;;7.20;99.90;;;;;;5074853;28;19948;-79
2022/04/09 02:04:57;;;;;;;;;;;7.20;99.90;;;;;;5073503;28;19909;-81
2022/04/09 02:07:24;;;;;;;;;;;7.20;99.90;;;;;;5075279;28;19908;-80
2022/04/09 02:09:49;;;;;;;;;;;7.30;99.90;;;;;;5075074;28;19916;-78
2022/04/09 02:12:15;;;;;;;;;;;7.20;99.90;;;;;;5074938;28;19965;-79
2022/04/09 02:14:41;;;;;;;;;;;7.20;99.90;;;;;;5074171;28;19985;-79
2022/04/09 02:17:07;;;;;;;;;;;7.20;99.90;;;;;;5075858;28;19908;-79
2022/04/09 02:19:32;;;;;;;;;;;7.10;99.90;;;;;;5079534;28;19950;-79
2022/04/09 02:21:58;;;;;;;;;;;7.10;99.90;;;;;;5076124;28;19915;-79
2022/04/09 02:24:23;;;;;;;;;;;7.00;99.90;;;;;;5078474;28;20341;-78
2022/04/09 02:26:49;;;;;;;;;;;7.00;99.90;;;;;;5078285;28;19910;-78
2022/04/09 02:29:14;;;;;;;;;;;7.00;99.90;;;;;;5084265;28;20369;-78
2022/04/09 02:31:40;;;;;;;;;;;7.00;99.90;;;;;;5094853;28;19961;-79
2022/04/09 02:34:06;;;;;;;;;;;7.00;99.90;;;;;;5095532;28;20280;-78
2022/04/09 02:36:32;;;;;;;;;;;6.90;99.90;;;;;;5095674;28;19908;-79
2022/04/09 02:38:58;;;;;;;;;;;6.90;99.90;;;;;;5094397;28;19904;-79
2022/04/09 02:41:24;;;;;;;;;;;7.00;99.90;;;;;;5094213;28;20301;-79
2022/04/09 02:43:50;;;;;;;;;;;6.90;99.90;;;;;;5094905;28;19908;-78
2022/04/09 02:46:16;;;;;;;;;;;6.90;99.90;;;;;;5095281;28;19919;-79
2022/04/09 02:48:42;;;;;;;;;;;7.00;99.90;;;;;;5096182;28;19995;-78
2022/04/09 02:51:08;;;;;;;;;;;7.00;99.90;;;;;;5094929;28;20038;-78
2022/04/09 02:53:33;;;;;;;;;;;7.00;99.90;;;;;;5093244;28;19907;-79
2022/04/09 02:55:59;;;;;;;;;;;7.10;99.90;;;;;;5094872;28;19910;-80
2022/04/09 02:58:25;;;;;;;;;;;7.10;99.90;;;;;;5095625;28;20011;-79
2022/04/09 03:00:50;;;;;;;;;;;7.10;99.90;;;;;;5094646;28;19954;-79
2022/04/09 03:03:16;;;;;;;;;;;7.10;99.90;;;;;;5093303;28;19908;-78
2022/04/09 03:05:41;;;;;;;;;;;7.10;99.90;;;;;;5093968;28;20015;-81
2022/04/09 03:08:07;;;;;;;;;;;7.10;99.90;;;;;;5093934;28;19908;-81
2022/04/09 03:10:33;;;;;;;;;;;7.10;99.90;;;;;;5094078;28;20329;-80
2022/04/09 03:12:58;;;;;;;;;;;7.10;99.90;;;;;;5092422;28;20288;-82
2022/04/09 03:15:26;;;;;;;;;;;7.00;99.90;;;;;;5093891;28;19904;-81
2022/04/09 03:17:51;;;;;;;;;;;7.00;99.90;;;;;;5093833;28;19904;-79
2022/04/09 03:20:17;;;;;;;;;;;7.00;99.90;;;;;;5074463;28;19935;-80
2022/04/09 03:22:43;;;;;;;;;;;7.00;99.80;;;;;;5073262;28;19904;-80
2022/04/09 03:25:09;;;;;;;;;;;7.00;99.70;;;;;;5073961;28;19904;-82
2022/04/09 03:27:35;;;;;;;;;;;6.90;99.50;;;;;;5074480;28;19954;-79
2022/04/09 03:30:01;;;;;;;;;;;6.90;99.20;;;;;;5090538;28;20019;-79
2022/04/09 03:32:26;;;;;;;;;;;6.90;98.80;;;;;;5094157;28;19908;-81
2022/04/09 03:34:53;;;;;;;;;;;6.90;98.90;;;;;;5093912;28;20360;-78
2022/04/09 03:37:18;;;;;;;;;;;7.00;98.80;;;;;;5091941;28;19955;-80
2022/04/09 03:39:44;;;;;;;;;;;7.10;98.80;;;;;;5093451;28;19908;-78
2022/04/09 03:42:10;;;;;;;;;;;7.10;98.60;;;;;;5093168;28;19908;-79
2022/04/09 03:44:35;;;;;;;;;;;7.10;98.50;;;;;;5094571;28;19908;-78
2022/04/09 03:47:01;;;;;;;;;;;7.10;98.40;;;;;;5096766;28;19944;-80
2022/04/09 03:49:30;;;;;;;;;;;7.10;98.40;;;;;;5093115;28;19916;-80
2022/04/09 03:51:56;;;;;;;;;;;7.10;98.40;;;;;;5092289;28;19908;-79
2022/04/09 03:54:22;;;;;;;;;;;7.10;98.30;;;;;;5092850;28;20400;-79
2022/04/09 03:56:48;;;;;;;;;;;7.10;98.30;;;;;;5093740;28;19904;-79
2022/04/09 03:59:13;;;;;;;;;;;7.20;98.40;;;;;;5094142;28;20380;-79
2022/04/09 04:01:40;;;;;;;;;;;7.10;98.20;;;;;;5093717;28;19911;-79
2022/04/09 04:04:06;;;;;;;;;;;7.10;98.20;;;;;;5093272;28;19915;-79
2022/04/09 04:06:31;;;;;;;;;;;7.10;98.10;;;;;;5093231;28;19904;-80
2022/04/09 04:08:57;;;;;;;;;;;7.20;98.10;;;;;;5092267;28;19963;-80
2022/04/09 04:11:23;;;;;;;;;;;7.20;97.90;;;;;;5092785;28;20379;-80
2022/04/09 04:13:49;;;;;;;;;;;7.30;97.80;;;;;;5093035;28;20365;-81
2022/04/09 04:16:17;;;;;;;;;;;7.30;97.70;;;;;;5093169;28;19997;-80
2022/04/09 04:18:43;;;;;;;;;;;7.30;97.60;;;;;;5091482;28;20448;-81
2022/04/09 04:21:09;;;;;;;;;;;7.40;97.60;;;;;;5092534;28;19943;-80
2022/04/09 04:23:35;;;;;;;;;;;7.50;97.70;;;;;;5092851;28;20396;-80
2022/04/09 04:26:01;;;;;;;;;;;7.50;97.50;;;;;;5090623;28;19912;-79
2022/04/09 04:28:26;;;;;;;;;;;7.60;97.40;;;;;;5092628;28;20006;-79
2022/04/09 04:30:52;;;;;;;;;;;7.60;97.20;;;;;;5093584;28;20333;-80
2022/04/09 04:33:18;;;;;;;;;;;7.60;97.10;;;;;;5094361;28;20280;-79
2022/04/09 04:35:44;;;;;;;;;;;7.60;97.00;;;;;;5093438;28;19995;-79
2022/04/09 04:38:11;;;;;;;;;;;7.60;96.90;;;;;;5093018;28;19912;-80
2022/04/09 04:40:36;;;;;;;;;;;7.40;96.60;;;;;;5087770;28;19908;-80
2022/04/09 04:43:02;;;;;;;;;;;7.30;96.50;;;;;;5072409;28;20350;-79
2022/04/09 04:45:28;;;;;;;;;;;7.30;96.60;;;;;;5072272;28;20426;-81
2022/04/09 04:47:53;;;;;;;;;;;7.30;96.50;;;;;;5072839;28;19916;-81
2022/04/09 04:50:19;;;;;;;;;;;7.30;96.40;;;;;;5076381;28;19951;-81
2022/04/09 04:52:45;;;;;;;;;;;7.20;96.30;;;;;;5081783;28;19926;-79
2022/04/09 04:55:11;;;;;;;;;;;7.20;96.30;;;;;;5104028;28;19998;-81
2022/04/09 04:57:40;;;;;;;;;;;7.30;96.30;;;;;;5098005;28;19908;-81
2022/04/09 05:00:06;;;;;;;;;;;7.40;96.10;;;;;;5078856;28;20317;-81
2022/04/09 05:02:32;;;;;;;;;;;7.40;96.00;;;;;;5074238;28;19904;-81
2022/04/09 05:04:57;;;;;;;;;;;7.50;95.90;;;;;;5074116;28;19905;-81
2022/04/09 05:07:23;;;;;;;;;;;7.50;95.80;;;;;;5075993;28;19904;-80
2022/04/09 05:09:48;;;;;;;;;;;7.40;95.70;;;;;;5076518;28;20437;-80
2022/04/09 05:12:14;;;;;;;;;;;7.40;95.60;;;;;;5075858;28;19946;-80
2022/04/09 05:14:41;;;;;;;;;;;7.40;95.60;;;;;;5086179;28;19923;-80
2022/04/09 05:17:07;;;;;;;;;;;7.40;95.50;;;;;;5096522;28;19908;-80
2022/04/09 05:19:32;;;;;;;;;;;7.50;95.50;;;;;;5094505;28;19914;-79
2022/04/09 05:21:58;;;;;;;;;;;7.50;95.40;;;;;;5076011;28;19955;-80
2022/04/09 05:24:24;;;;;;;;;;;7.60;95.40;;;;;;5075730;28;20358;-80
2022/04/09 05:26:49;;;;;;;;;;;7.60;95.10;;;;;;5075703;28;19904;-81
2022/04/09 05:29:15;;;;;;;;;;;7.50;95.00;;;;;;5084811;28;19961;-80
2022/04/09 05:31:43;;;;;;;;;;;7.40;95.00;;;;;;5082431;28;20027;-80
2022/04/09 05:34:08;;;;;;;;;;;7.40;95.00;;;;;;5075387;28;19995;-82
2022/04/09 05:36:34;;;;;;;;;;;7.50;95.00;;;;;;5075486;28;19963;-80
2022/04/09 05:38:59;;;;;;;;;;;7.50;95.00;;;;;;5075384;28;19904;-80
2022/04/09 05:41:25;;;;;;;;;;;7.60;94.90;;;;;;5074065;28;19973;-81
2022/04/09 05:43:51;;;;;;;;;;;7.70;94.90;;;;;;5075402;28;19908;-80
2022/04/09 05:46:16;;;;;;;;;;;7.70;94.80;;;;;;5078270;28;19908;-81
2022/04/09 05:48:42;;;;;;;;;;;7.80;94.80;;;;;;5095003;28;19961;-80
2022/04/09 05:51:08;;;;;;;;;;;7.90;94.90;;;;;;5095304;28;20322;-80
2022/04/09 05:53:34;;;;;;;;;;;7.90;94.70;;;;;;5091414;28;19920;-79
2022/04/09 05:55:59;;;;;;;;;;;8.00;94.70;;;;;;5082953;28;19912;-80
2022/04/09 05:58:25;;;;;;;;;;;8.10;94.70;;;;;;5093223;28;20048;-77
2022/04/09 06:00:51;;;;;;;;;;;8.00;94.50;;;;;;5089551;28;19918;-80
2022/04/09 06:03:17;;;;;;;;;;;8.00;94.50;;;;;;5099490;28;19932;-80
2022/04/09 06:05:43;;;;;;;;;;;8.00;94.40;;;;;;5095738;28;20308;-81
2022/04/09 06:08:09;;;;;;;;;;;7.90;94.30;;;;;;5077911;28;19919;-80
2022/04/09 06:10:34;;;;;;;;;;;7.90;94.20;;;;;;5077121;28;19927;-79
2022/04/09 06:13:00;;;;;;;;;;;7.80;94.60;;;;;;5074708;28;20378;-81
2022/04/09 06:15:25;;;;;;;;;;;7.90;94.50;;;;;;5074770;28;19991;-80
2022/04/09 06:17:51;;;;;;;;;;;7.90;94.50;;;;;;5055309;28;20377;-80
2022/04/09 06:20:17;;;;;;;;;;;7.90;94.50;;;;;;5055364;28;20436;-80
2022/04/09 06:22:42;;;;;;;;;;;7.90;94.40;;;;;;5068634;28;19922;-79
2022/04/09 06:25:08;;;;;;;;;;;7.90;94.50;;;;;;5074643;28;19905;-80
2022/04/09 06:27:37;;;;;;;;;;;7.90;94.50;;;;;;5075081;28;19915;-78
2022/04/09 06:30:04;;;;;;;;;;;7.90;94.50;;;;;;5075329;28;20258;-80
2022/04/09 06:32:29;;;;;;;;;;;7.90;94.50;;;;;;5073460;28;19931;-81
2022/04/09 06:34:55;;;;;;;;;;;7.90;94.40;;;;;;5072605;28;20361;-82
2022/04/09 06:37:20;;;;;;;;;;;7.90;94.30;;;;;;5053667;28;19905;-78
2022/04/09 06:39:46;;;;;;;;;;;7.90;94.40;;;;;;5072410;28;19912;-82
2022/04/09 06:42:12;;;;;;;;;;;8.00;94.40;;;;;;5073776;28;19908;-82
2022/04/09 06:44:38;;;;;;;;;;;8.10;94.20;;;;;;5074578;28;19912;-86
2022/04/09 06:47:08;;;;;;;;;;;8.20;94.30;;;;;;5074739;28;19911;-80
2022/04/09 06:49:35;;;;;;;;;;;8.40;94.20;;;;;;5074412;28;20375;-81
2022/04/09 06:52:01;;;;;;;;;;;8.60;94.30;;;;;;5073762;28;19912;-84
2022/04/09 06:54:26;;;;;;;;;;;8.60;93.60;;;;;;5076029;28;19915;-84
2022/04/09 06:56:52;;;;;;;;;;;8.60;93.30;;;;;;5078375;28;19999;-82
2022/04/09 06:59:18;;;;;;;;;;;8.50;93.30;;;;;;5075965;28;19908;-79
2022/04/09 07:01:43;;;;;;;;;;;8.50;93.30;;;;;;5074347;28;19927;-80
2022/04/09 07:04:09;;;;;;;;;;;8.40;93.20;;;;;;5074222;28;19904;-79
2022/04/09 07:06:35;;;;;;;;;;;8.30;93.10;;;;;;5058645;28;19931;-79
2022/04/09 07:09:03;;;;;;;;;;;8.20;93.10;;;;;;5061519;28;20293;-79
2022/04/09 07:11:28;;;;;;;;;;;8.20;93.30;;;;;;5072295;28;19920;-79
2022/04/09 07:13:54;;;;;;;;;;;8.10;93.30;;;;;;5069343;28;19916;-79
2022/04/09 07:16:20;;;;;;;;;;;8.10;93.50;;;;;;5075947;28;19912;-79
2022/04/09 07:18:46;;;;;;;;;;;8.10;93.60;;;;;;5074798;28;19908;-81
2022/04/09 07:21:12;;;;;;;;;;;8.10;93.60;;;;;;5077348;28;19915;-78
2022/04/09 07:23:37;;;;;;;;;;;8.20;93.50;;;;;;5092176;28;19915;-79
2022/04/09 07:26:03;;;;;;;;;;;8.20;93.30;;;;;;5093863;28;19908;-82
2022/04/09 07:28:28;;;;;;;;;;;8.10;93.20;;;;;;5099891;28;19955;-81
2022/04/09 07:30:54;;;;;;;;;;;8.00;93.20;;;;;;5091706;28;19912;-82
2022/04/09 07:33:20;;;;;;;;;;;8.00;93.30;;;;;;5094727;28;19907;-82
2022/04/09 07:35:45;;;;;;;;;;;7.90;93.30;;;;;;5093497;28;20273;-79
2022/04/09 07:38:11;;;;;;;;;;;8.00;93.40;;;;;;5093831;28;19904;-80
2022/04/09 07:40:37;;;;;;;;;;;8.10;93.40;;;;;;5074191;28;19912;-79
2022/04/09 07:43:03;;;;;;;;;;;8.20;93.30;;;;;;5072764;28;19908;-80
2022/04/09 07:45:28;;;;;;;;;;;8.20;93.20;;;;;;5074933;28;19911;-80
2022/04/09 07:47:55;;;;;;;;;;;8.20;93.00;;;;;;5093622;28;19957;-79
2022/04/09 07:50:21;;;;;;;;;;;8.30;93.00;;;;;;5092358;28;19916;-78
2022/04/09 07:52:47;;;;;;;;;;;8.40;93.40;;;;;;5075038;28;19939;-80
2022/04/09 07:55:16;;;;;;;;;;;8.50;92.90;;;;;;5075119;28;19954;-83
2022/04/09 07:57:42;;;;;;;;;;;8.60;92.80;;;;;;5092035;28;19994;-79
2022/04/09 08:00:08;;;;;;;;;;;8.60;92.70;;;;;;5093456;28;19907;-82
2022/04/09 08:02:34;;;;;;;;;;;8.50;92.50;;;;;;5092969;28;19998;-81
2022/04/09 08:05:00;;;;;;;;;;;8.50;92.40;;;;;;5092222;28;19908;-81
2022/04/09 08:07:26;;;;;;;;;;;8.50;92.40;;;;;;5074920;28;19908;-81
2022/04/09 08:09:51;;;;;;;;;;;8.50;92.30;;;;;;5092840;28;19923;-80
2022/04/09 08:12:17;;;;;;;;;;;8.50;92.00;;;;;;5092800;28;19912;-81
2022/04/09 08:14:43;;;;;;;;;;;8.40;92.20;;;;;;5077311;28;19916;-83
2022/04/09 08:17:08;;;;;;;;;;;8.40;92.30;;;;;;5070992;28;19911;-81
2022/04/09 08:19:35;;;;;;;;;;;8.50;92.20;;;;;;5093066;28;19999;-79
2022/04/09 08:22:01;;;;;;;;;;;8.50;92.10;;;;;;5094170;28;19908;-81
2022/04/09 08:24:26;;;;;;;;;;;8.60;92.10;;;;;;5093784;28;19938;-83
2022/04/09 08:26:52;;;;;;;;;;;8.50;91.70;;;;;;5093657;28;19904;-82
2022/04/09 08:29:20;;;;;;;;;;;8.50;92.00;;;;;;5093171;28;20281;-82
2022/04/09 08:31:47;;;;;;;;;;;8.60;92.00;;;;;;5084536;28;19912;-81
2022/04/09 08:34:13;;;;;;;;;;;8.60;92.10;;;;;;5061732;28;19947;-81
2022/04/09 08:36:39;;;;;;;;;;;8.70;92.00;;;;;;5072427;28;19943;-77
2022/04/09 08:39:05;;;;;;;;;;;8.70;91.80;;;;;;5084911;28;19966;-78
2022/04/09 08:41:30;;;;;;;;;;;8.60;91.80;;;;;;5096246;28;19915;-80
2022/04/09 08:43:56;;;;;;;;;;;8.50;91.80;;;;;;5096575;28;20420;-80
2022/04/09 08:46:25;;;;;;;;;;;8.50;91.90;;;;;;5096153;28;19908;-79
2022/04/09 08:48:50;;;;;;;;;;;8.50;91.90;;;;;;5078622;28;19912;-81
2022/04/09 08:51:16;;;;;;;;;;;8.40;91.90;;;;;;5079554;28;19912;-80
2022/04/09 08:53:42;;;;;;;;;;;8.30;92.10;;;;;;5096296;28;19908;-78
2022/04/09 08:56:10;;;;;;;;;;;8.20;92.20;;;;;;5096837;28;19910;-79
2022/04/09 08:58:35;;;;;;;;;;;8.30;92.40;;;;;;5096606;28;19912;-80
2022/04/09 09:01:01;;;;;;;;;;;8.40;92.50;;;;;;5096560;28;19908;-82
2022/04/09 09:03:27;;;;;;;;;;;8.70;92.60;;;;;;5095632;28;20365;-79
2022/04/09 09:05:53;;;;;;;;;;;9.10;92.50;;;;;;5096423;28;20007;-80
2022/04/09 09:08:37;;;;;;;;;;;9.40;92.10;;;;;;5096491;28;20343;-81
2022/04/09 09:11:03;;;;;;;;;;;9.60;91.20;;;;;;5096232;28;19919;-79
2022/04/09 09:13:29;;;;;;;;;;;9.70;90.80;;;;;;5096058;28;20369;-80
2022/04/09 09:15:55;;;;;;;;;;;9.70;90.60;;;;;;5096044;28;20006;-80
2022/04/09 09:18:21;;;;;;;;;;;9.70;90.30;;;;;;5096007;28;20426;-81
2022/04/09 09:20:50;;;;;;;;;;;9.60;90.20;;;;;;5079249;28;19908;-80
2022/04/09 09:23:26;;;;;;;;;;;9.70;90.30;;;;;;5080701;28;19911;-80
2022/04/09 09:25:53;;;;;;;;;;;9.70;90.00;;;;;;5098090;28;19908;-81
2022/04/09 09:28:23;;;;;;;;;;;9.80;89.60;;;;;;5099195;28;19904;-80
2022/04/09 09:30:48;;;;;;;;;;;10.00;89.80;;;;;;5080393;28;19912;-79
2022/04/09 09:33:14;;;;;;;;;;;10.30;88.60;;;;;;5098549;28;20402;-80
2022/04/09 09:35:50;;;;;;;;;;;10.60;88.40;;;;;;5095677;28;20499;-81
2022/04/09 09:38:19;;;;;;;;;;;10.80;87.60;;;;;;5098546;28;19908;-79
2022/04/09 09:40:45;;;;;;;;;;;11.10;86.90;;;;;;5098487;28;19904;-81
2022/04/09 09:43:15;;;;;;;;;;;11.40;85.40;;;;;;5077342;28;19919;-81
2022/04/09 09:45:43;;;;;;;;;;;11.60;83.30;;;;;;5095959;28;19915;-80
2022/04/09 09:48:21;;;;;;;;;;;11.40;81.60;;;;;;5095199;28;19904;-83
2022/04/09 09:50:47;;;;;;;;;;;11.10;81.90;;;;;;5095107;28;19947;-82
2022/04/09 09:53:12;;;;;;;;;;;11.20;82.40;;;;;;5074770;28;19915;-79
2022/04/09 09:55:44;;;;;;;;;;;11.40;82.10;;;;;;5074964;28;19904;-80
2022/04/09 09:58:17;;;;;;;;;;;11.60;81.30;;;;;;5074916;28;19908;-79
2022/04/09 10:00:43;;;;;;;;;;;13.00;82.70;;;;;;5078109;28;19914;-80
2022/04/09 10:03:10;;;;;;;;;;;13.90;76.00;;;;;;5094465;28;19927;-81
2022/04/09 10:05:37;;;;;;;;;;;14.10;74.60;;;;;;5094547;28;19907;-80
2022/04/09 10:08:04;;;;;;;;;;;14.70;73.60;;;;;;5093319;28;19904;-79
2022/04/09 10:10:29;;;;;;;;;;;15.40;72.00;;;;;;5074570;28;19919;-82
2022/04/09 10:12:58;;;;;;;;;;;15.60;69.30;;;;;;5074738;28;19908;-83
2022/04/09 10:15:25;;;;;;;;;;;15.40;69.00;;;;;;5074790;28;19944;-81
2022/04/09 10:17:53;;;;;;;;;;;15.20;68.40;;;;;;5091709;28;20345;-82
2022/04/09 10:20:19;;;;;;;;;;;14.80;67.40;;;;;;5076958;28;20345;-82
2022/04/09 10:22:45;;;;;;;;;;;14.00;66.30;;;;;;5094290;28;20042;-81
2022/04/09 10:25:12;;;;;;;;;;;13.30;66.90;;;;;;5087603;28;20373;-81
2022/04/09 10:27:38;;;;;;;;;;;12.70;68.10;;;;;;5082815;28;20002;-82
2022/04/09 10:30:10;;;;;;;;;;;12.60;69.00;;;;;;5076884;28;19911;-84
2022/04/09 10:32:42;;;;;;;;;;;12.30;68.60;;;;;;5094287;28;19919;-79
2022/04/09 10:35:23;;;;;;;;;;;12.30;69.50;;;;;;5094994;28;19911;-82
2022/04/09 10:38:07;;;;;;;;;;;11.90;69.60;;;;;;5095062;28;19904;-80
2022/04/09 10:40:37;;;;;;;;;;;11.50;70.70;;;;;;5094865;28;19904;-82
2022/04/09 10:43:04;;;;;;;;;;;10.90;72.00;;;;;;5093691;28;20401;-80
2022/04/09 10:45:53;;;;;;;;;;;10.70;72.90;;;;;;5094484;28;19920;-81
2022/04/09 10:48:27;;;;;;;;;;;10.70;73.60;;;;;;5093215;28;19907;-81
2022/04/09 10:50:53;;;;;;;;;;;11.00;74.10;;;;;;5093933;28;20379;-78
2022/04/09 10:53:20;;;;;;;;;;;11.10;74.90;;;;;;5072706;28;19904;-76
2022/04/09 10:56:05;;;;;;;;;;;11.30;75.10;;;;;;5090488;28;19908;-79
2022/04/09 10:58:31;;;;;;;;;;;11.50;74.20;;;;;;5080054;28;19958;-78
2022/04/09 11:00:56;;;;;;;;;;;11.30;73.90;;;;;;5055654;28;19958;-78
2022/04/09 11:03:28;;;;;;;;;;;11.00;73.80;;;;;;5073630;28;19926;-76
2022/04/09 11:06:13;;;;;;;;;;;10.70;74.50;;;;;;5075897;28;19904;-78
2022/04/09 11:08:40;;;;;;;;;;;10.50;75.60;;;;;;5093619;28;20284;-77
2022/04/09 11:11:05;;;;;;;;;;;10.40;75.80;;;;;;5093641;28;20066;-85
2022/04/09 11:13:31;;;;;;;;;;;10.60;76.20;;;;;;5075068;28;19967;-82
2022/04/09 11:15:56;;;;;;;;;;;10.70;76.10;;;;;;5094052;28;19915;-82
2022/04/09 11:18:22;;;;;;;;;;;10.90;75.80;;;;;;5093744;28;20296;-83
2022/04/09 11:20:49;;;;;;;;;;;10.90;75.50;;;;;;5094014;28;19911;-82
2022/04/09 11:23:15;;;;;;;;;;;11.10;75.60;;;;;;5091558;28;20046;-83
2022/04/09 11:25:44;;;;;;;;;;;11.30;75.50;;;;;;5056005;28;19923;-81
2022/04/09 11:28:19;;;;;;;;;;;11.60;75.20;;;;;;5073208;28;20380;-81
2022/04/09 11:30:54;;;;;;;;;;;11.90;74.60;;;;;;5072964;28;19916;-81
2022/04/09 11:33:20;;;;;;;;;;;12.20;74.10;;;;;;5073417;28;19915;-81
2022/04/09 11:35:46;;;;;;;;;;;12.40;73.30;;;;;;5076676;28;20133;-81
2022/04/09 11:38:12;;;;;;;;;;;12.30;72.50;;;;;;5075801;28;19951;-82
2022/04/09 11:40:46;;;;;;;;;;;12.00;70.90;;;;;;5079124;28;19991;-85
2022/04/09 11:43:13;;;;;;;;;;;11.70;69.90;;;;;;5036294;28;20277;-83
2022/04/09 11:45:40;;;;;;;;;;;11.60;70.70;;;;;;5015073;28;20000;-78
2022/04/09 11:48:06;;;;;;;;;;;11.70;71.00;;;;;;5031133;28;19909;-77
2022/04/09 11:50:33;;;;;;;;;;;11.80;70.90;;;;;;5014310;28;20024;-78
2022/04/09 11:53:19;;;;;;;;;;;11.80;71.00;;;;;;5047483;28;20366;-76
2022/04/09 11:55:45;;;;;;;;;;;12.00;71.10;;;;;;5050159;28;19904;-78
2022/04/09 11:58:14;;;;;;;;;;;12.30;71.00;;;;;;5035509;28;19908;-77
2022/04/09 12:00:42;;;;;;;;;;;12.20;69.70;;;;;;5029102;28;19916;-78
2022/04/09 12:03:08;;;;;;;;;;;12.10;69.50;;;;;;5030887;28;19931;-78
2022/04/09 12:05:46;;;;;;;;;;;12.20;69.90;;;;;;5030960;28;19963;-79
2022/04/09 12:08:12;;;;;;;;;;;12.30;70.00;;;;;;5030356;28;19916;-79
2022/04/09 12:10:53;;;;;;;;;;;12.50;69.90;;;;;;5030401;28;19913;-79
2022/04/09 12:13:29;;;;;;;;;;;12.70;69.80;;;;;;5036002;28;19920;-79
2022/04/09 12:15:55;;;;;;;;;;;12.70;68.40;;;;;;5073315;28;20285;-81
2022/04/09 12:18:27;;;;;;;;;;;12.60;68.90;;;;;;5063333;28;19908;-78
2022/04/09 12:20:53;;;;;;;;;;;12.60;68.60;;;;;;5072934;28;19912;-79
2022/04/09 12:23:32;;;;;;;;;;;12.40;68.70;;;;;;5072682;28;19905;-79
2022/04/09 12:25:59;;;;;;;;;;;12.50;69.70;;;;;;5054686;28;19911;-80
2022/04/09 12:28:28;;;;;;;;;;;12.70;69.60;;;;;;5055302;28;19949;-80
2022/04/09 12:30:55;;;;;;;;;;;12.90;69.20;;;;;;5073295;28;19958;-82
2022/04/09 12:33:22;;;;;;;;;;;12.90;68.40;;;;;;5062310;28;19916;-79
2022/04/09 12:35:47;;;;;;;;;;;12.60;67.70;;;;;;5055289;28;19905;-79
2022/04/09 12:38:31;;;;;;;;;;;12.40;66.60;;;;;;5062760;28;19974;-80
2022/04/09 12:40:57;;;;;;;;;;;12.30;67.30;;;;;;5069665;28;19956;-82
2022/04/09 12:43:36;;;;;;;;;;;12.20;67.10;;;;;;5069822;28;20379;-79
2022/04/09 12:46:03;;;;;;;;;;;12.10;67.20;;;;;;5078020;28;19904;-81
2022/04/09 12:48:45;;;;;;;;;;;12.10;66.10;;;;;;5086459;28;19973;-78
2022/04/09 12:51:13;;;;;;;;;;;11.90;66.00;;;;;;5071429;28;19920;-81
2022/04/09 12:53:38;;;;;;;;;;;11.90;67.10;;;;;;5071405;28;19904;-77
2022/04/09 12:56:08;;;;;;;;;;;12.10;67.00;;;;;;5086005;28;19908;-79
2022/04/09 12:58:35;;;;;;;;;;;12.10;66.40;;;;;;5092238;28;19998;-80
2022/04/09 13:01:01;;;;;;;;;;;12.10;66.80;;;;;;5091845;28;19908;-79
2022/04/09 13:03:26;;;;;;;;;;;12.10;66.70;;;;;;5047849;28;19909;-78
2022/04/09 13:05:52;;;;;;;;;;;12.00;66.90;;;;;;5066378;28;19962;-77
2022/04/09 13:08:17;;;;;;;;;;;11.90;67.20;;;;;;5071755;28;19927;-79
2022/04/09 13:10:43;;;;;;;;;;;12.00;67.50;;;;;;5071418;28;19918;-78
2022/04/09 13:13:09;;;;;;;;;;;12.00;67.80;;;;;;5078715;28;19923;-81
2022/04/09 13:15:34;;;;;;;;;;;12.00;68.10;;;;;;5092388;28;19911;-79
2022/04/09 13:18:00;;;;;;;;;;;12.00;68.20;;;;;;5091934;28;19961;-80
2022/04/09 13:20:26;;;;;;;;;;;12.00;67.90;;;;;;5052061;28;20381;-80
2022/04/09 13:22:51;;;;;;;;;;;11.80;68.10;;;;;;5071852;28;19904;-81
2022/04/09 13:25:19;;;;;;;;;;;11.90;68.60;;;;;;5071738;28;19908;-80
2022/04/09 13:27:47;;;;;;;;;;;12.00;68.50;;;;;;5056424;28;19915;-81
2022/04/09 13:30:13;;;;;;;;;;;12.10;66.90;;;;;;5075138;28;19912;-79
2022/04/09 13:32:39;;;;;;;;;;;12.10;67.00;;;;;;5075315;28;19981;-79
2022/04/09 13:35:05;;;;;;;;;;;12.20;66.90;;;;;;5077050;28;20460;-78
2022/04/09 13:37:31;;;;;;;;;;;12.20;66.70;;;;;;5077402;28;19961;-79
2022/04/09 13:39:56;;;;;;;;;;;12.30;66.90;;;;;;5095355;28;19908;-81
2022/04/09 13:42:22;;;;;;;;;;;12.30;66.80;;;;;;5095515;28;19950;-79
2022/04/09 13:44:48;;;;;;;;;;;12.20;66.80;;;;;;5076798;28;19912;-80
2022/04/09 13:47:13;;;;;;;;;;;12.20;67.40;;;;;;5075807;28;19961;-78
2022/04/09 13:49:39;;;;;;;;;;;12.30;67.70;;;;;;5075095;28;19913;-75
2022/04/09 13:52:05;;;;;;;;;;;12.30;68.00;;;;;;5070603;28;19950;-77
2022/04/09 13:54:31;;;;;;;;;;;12.30;68.30;;;;;;5057803;28;19909;-76
2022/04/09 13:56:57;;;;;;;;;;;12.30;68.30;;;;;;5072489;28;19908;-77
2022/04/09 13:59:23;;;;;;;;;;;12.30;68.40;;;;;;5065135;28;19915;-76
2022/04/09 14:01:48;;;;;;;;;;;12.20;68.30;;;;;;5074251;28;19905;-76
2022/04/09 14:04:14;;;;;;;;;;;12.30;68.50;;;;;;5071987;28;19915;-77
2022/04/09 14:06:40;;;;;;;;;;;12.20;68.40;;;;;;5053798;28;19940;-75
2022/04/09 14:09:05;;;;;;;;;;;12.20;68.40;;;;;;5074091;28;19913;-77
2022/04/09 14:11:31;;;;;;;;;;;12.30;68.40;;;;;;5074243;28;19908;-78
2022/04/09 14:13:57;;;;;;;;;;;12.30;68.30;;;;;;5083787;28;20007;-77
2022/04/09 14:16:23;;;;;;;;;;;12.20;68.40;;;;;;5095799;28;19927;-78
2022/04/09 14:18:49;;;;;;;;;;;12.20;68.40;;;;;;5076331;28;20372;-78
2022/04/09 14:21:14;;;;;;;;;;;12.20;68.40;;;;;;5094512;28;19958;-79
2022/04/09 14:23:41;;;;;;;;;;;12.10;68.30;;;;;;5095253;28;19908;-76